createdAt,value
2022-12-07T00:00:56.321Z,7.00
2022-12-07T00:03:23.366Z,7.88
2022-12-07T00:05:50.476Z,7.35
2022-12-07T00:08:17.626Z,7.32
2022-12-07T00:10:44.761Z,8.30
2022-12-07T00:13:11.822Z,7.82
2022-12-07T00:15:38.923Z,7.55
2022-12-07T00:18:05.961Z,8.00
2022-12-07T00:20:33.962Z,7.70
2022-12-07T00:23:01.235Z,7.63
2022-12-07T00:25:28.278Z,7.93
2022-12-07T00:27:57.574Z,7.70
2022-12-07T00:30:25.182Z,7.95
2022-12-07T00:32:52.308Z,8.52
2022-12-07T00:35:19.362Z,8.18
2022-12-07T00:37:46.447Z,7.70
2022-12-07T00:40:13.642Z,8.00
2022-12-07T00:42:40.690Z,7.47
2022-12-07T00:45:08.089Z,8.05
2022-12-07T00:47:35.134Z,7.45
2022-12-07T00:50:02.453Z,7.85
2022-12-07T00:52:29.610Z,8.02
2022-12-07T00:54:56.714Z,8.23
2022-12-07T00:57:23.761Z,7.40
2022-12-07T00:59:50.860Z,8.40
2022-12-07T01:02:17.943Z,8.20
2022-12-07T01:04:44.973Z,8.05
2022-12-07T01:07:12.074Z,7.55
2022-12-07T01:09:39.118Z,7.90
2022-12-07T01:12:06.321Z,8.05
2022-12-07T01:14:33.383Z,9.23
2022-12-07T01:17:00.116Z,8.93
2022-12-07T01:19:27.253Z,8.80
2022-12-07T01:21:54.305Z,9.05
2022-12-07T01:24:21.345Z,9.23
2022-12-07T01:26:51.441Z,9.25
2022-12-07T01:29:18.489Z,9.18
2022-12-07T01:31:46.622Z,9.75
2022-12-07T01:34:13.650Z,8.90
2022-12-07T01:36:40.800Z,8.63
2022-12-07T01:39:08.686Z,9.20
2022-12-07T01:41:40.092Z,9.60
2022-12-07T01:44:07.141Z,9.80
2022-12-07T01:46:34.287Z,10.47
2022-12-07T01:49:01.495Z,9.80
2022-12-07T01:51:29.114Z,8.95
2022-12-07T01:53:56.338Z,9.65
2022-12-07T01:56:25.180Z,9.25
2022-12-07T01:58:52.707Z,9.02
2022-12-07T02:01:19.874Z,9.00
2022-12-07T02:03:47.114Z,8.80
2022-12-07T02:06:17.870Z,9.30
2022-12-07T02:08:45.234Z,8.77
2022-12-07T02:11:12.390Z,9.00
2022-12-07T02:13:41.229Z,9.80
2022-12-07T02:16:09.498Z,9.20
2022-12-07T02:18:56.113Z,9.48
2022-12-07T02:21:38.710Z,9.93
2022-12-07T02:24:16.127Z,10.15
2022-12-07T02:27:03.141Z,9.60
2022-12-07T02:29:40.899Z,9.57
2022-12-07T02:32:15.405Z,10.38
2022-12-07T02:35:02.369Z,9.48
2022-12-07T02:37:29.469Z,9.65
2022-12-07T02:40:00.035Z,9.93
2022-12-07T02:42:38.038Z,10.20
2022-12-07T02:45:06.673Z,10.27
2022-12-07T02:47:34.998Z,10.15
2022-12-07T02:50:04.356Z,10.48
2022-12-07T02:52:31.542Z,10.90
2022-12-07T02:54:58.279Z,9.93
2022-12-07T02:57:33.941Z,9.45
2022-12-07T03:00:08.033Z,9.15
2022-12-07T03:02:38.557Z,8.80
2022-12-07T03:05:14.623Z,9.05
2022-12-07T03:07:51.407Z,9.98
2022-12-07T03:10:18.402Z,9.65
2022-12-07T03:12:45.442Z,9.60
2022-12-07T03:15:16.069Z,9.27
2022-12-07T03:17:44.445Z,10.23
2022-12-07T03:20:13.106Z,11.13
2022-12-07T03:22:42.545Z,10.88
2022-12-07T03:25:12.309Z,10.80
2022-12-07T03:27:44.271Z,9.10
2022-12-07T03:30:14.570Z,9.32
2022-12-07T03:33:01.567Z,9.40
2022-12-07T03:35:30.733Z,9.15
2022-12-07T03:38:00.384Z,9.68
2022-12-07T03:40:30.726Z,11.85
2022-12-07T03:43:00.791Z,10.85
2022-12-07T03:45:33.324Z,12.00
2022-12-07T03:48:20.748Z,10.63
2022-12-07T03:50:52.313Z,10.07
2022-12-07T03:53:21.194Z,9.90
2022-12-07T03:55:48.877Z,9.45
2022-12-07T03:58:18.384Z,13.27
2022-12-07T04:00:45.719Z,12.80
2022-12-07T04:03:12.829Z,10.38
2022-12-07T04:05:40.760Z,10.38
2022-12-07T04:08:07.920Z,10.25
2022-12-07T04:10:35.154Z,9.43
2022-12-07T04:13:02.491Z,9.52
2022-12-07T04:15:29.760Z,9.82
2022-12-07T04:17:56.879Z,9.93
2022-12-07T04:20:23.878Z,11.40
2022-12-07T04:22:50.992Z,9.68
2022-12-07T04:25:18.083Z,12.15
2022-12-07T04:27:45.150Z,10.80
2022-12-07T04:30:12.322Z,11.90
2022-12-07T04:32:39.432Z,11.50
2022-12-07T04:35:06.839Z,11.20
2022-12-07T04:37:34.122Z,10.48
2022-12-07T04:40:01.618Z,10.23
2022-12-07T04:42:28.940Z,11.57
2022-12-07T04:44:56.101Z,11.97
2022-12-07T04:47:23.151Z,11.63
2022-12-07T04:49:50.232Z,12.37
2022-12-07T04:52:17.270Z,12.13
2022-12-07T04:54:44.248Z,11.88
2022-12-07T04:57:11.289Z,12.55
2022-12-07T04:59:42.421Z,12.15
2022-12-07T05:02:12.544Z,12.25
2022-12-07T05:04:39.722Z,12.43
2022-12-07T05:07:06.776Z,11.75
2022-12-07T05:09:33.861Z,12.15
2022-12-07T05:12:00.966Z,12.75
2022-12-07T05:14:28.031Z,12.70
2022-12-07T05:16:55.082Z,12.82
2022-12-07T05:19:21.895Z,12.48
2022-12-07T05:21:49.070Z,13.95
2022-12-07T05:24:18.150Z,14.85
2022-12-07T05:26:45.522Z,16.23
2022-12-07T05:29:14.051Z,15.15
2022-12-07T05:31:41.146Z,15.77
2022-12-07T05:34:08.781Z,15.10
2022-12-07T05:36:35.843Z,14.45
2022-12-07T05:39:02.926Z,14.38
2022-12-07T05:41:49.906Z,13.90
2022-12-07T05:44:16.986Z,15.20
2022-12-07T05:46:44.145Z,15.60
2022-12-07T05:49:11.237Z,16.10
2022-12-07T05:51:38.366Z,16.38
2022-12-07T05:54:05.419Z,16.55
2022-12-07T05:56:32.566Z,15.73
2022-12-07T05:59:19.419Z,17.52
2022-12-07T06:01:46.670Z,17.03
2022-12-07T06:04:13.771Z,16.45
2022-12-07T06:06:40.985Z,16.38
2022-12-07T06:09:08.406Z,16.58
2022-12-07T06:11:55.408Z,15.73
2022-12-07T06:14:22.474Z,15.88
2022-12-07T06:16:49.654Z,15.85
2022-12-07T06:19:16.962Z,15.48
2022-12-07T06:21:44.287Z,15.52
2022-12-07T06:24:13.342Z,15.23
2022-12-07T06:26:41.043Z,15.15
2022-12-07T06:29:08.448Z,15.45
2022-12-07T06:31:36.602Z,16.50
2022-12-07T06:34:04.882Z,16.90
2022-12-07T06:36:32.235Z,16.25
2022-12-07T06:38:59.330Z,16.25
2022-12-07T06:41:26.427Z,16.90
2022-12-07T06:43:56.255Z,16.77
2022-12-07T06:46:23.916Z,15.82
2022-12-07T06:48:51.432Z,16.70
2022-12-07T06:51:18.527Z,16.05
2022-12-07T06:53:45.566Z,15.98
2022-12-07T06:56:12.610Z,15.55
2022-12-07T06:58:40.744Z,15.85
2022-12-07T07:01:11.792Z,16.30
2022-12-07T07:03:39.336Z,16.95
2022-12-07T07:06:07.175Z,15.53
2022-12-07T07:08:34.441Z,15.95
2022-12-07T07:11:01.666Z,16.23
2022-12-07T07:13:29.271Z,16.50
2022-12-07T07:15:56.682Z,16.23
2022-12-07T07:18:23.790Z,17.08
2022-12-07T07:20:52.034Z,16.10
2022-12-07T07:23:19.436Z,17.13
2022-12-07T07:25:46.963Z,15.70
2022-12-07T07:28:14.054Z,16.70
2022-12-07T07:30:41.188Z,16.40
2022-12-07T07:33:08.491Z,15.90
2022-12-07T07:35:36.258Z,16.38
2022-12-07T07:38:03.521Z,16.45
2022-12-07T07:40:30.712Z,16.65
2022-12-07T07:42:57.898Z,15.75
2022-12-07T07:45:25.610Z,16.83
2022-12-07T07:47:52.685Z,16.02
2022-12-07T07:50:20.142Z,15.95
2022-12-07T07:52:47.354Z,16.67
2022-12-07T07:55:14.969Z,16.67
2022-12-07T07:57:42.414Z,16.20
2022-12-07T08:00:11.855Z,16.60
2022-12-07T08:02:38.912Z,17.08
2022-12-07T08:05:06.259Z,16.50
2022-12-07T08:07:33.401Z,16.57
2022-12-07T08:10:01.041Z,16.77
2022-12-07T08:12:28.501Z,16.08
2022-12-07T08:14:55.644Z,17.15
2022-12-07T08:17:22.751Z,16.73
2022-12-07T08:19:49.841Z,16.70
2022-12-07T08:22:16.482Z,16.60
2022-12-07T08:24:43.543Z,15.88
2022-12-07T08:27:10.832Z,16.33
2022-12-07T08:29:37.906Z,15.75
2022-12-07T08:32:09.379Z,16.13
2022-12-07T08:34:37.871Z,15.70
2022-12-07T08:37:04.911Z,15.20
2022-12-07T08:39:32.809Z,14.55
2022-12-07T08:42:00.226Z,14.52
2022-12-07T08:44:27.344Z,14.57
2022-12-07T08:46:57.520Z,13.95
2022-12-07T08:49:28.846Z,13.85
2022-12-07T08:51:57.037Z,13.35
2022-12-07T08:54:24.241Z,13.55
2022-12-07T08:56:57.145Z,13.47
2022-12-07T08:59:26.253Z,13.82
2022-12-07T09:01:53.486Z,12.70
2022-12-07T09:04:21.536Z,12.63
2022-12-07T09:06:49.007Z,12.35
2022-12-07T09:09:16.339Z,13.90
2022-12-07T09:11:43.403Z,12.38
2022-12-07T09:14:10.488Z,11.70
2022-12-07T09:16:37.815Z,11.90
2022-12-07T09:19:04.976Z,11.90
2022-12-07T09:21:32.288Z,10.73
2022-12-07T09:23:59.340Z,10.88
2022-12-07T09:26:26.950Z,11.38
2022-12-07T09:28:54.000Z,10.63
2022-12-07T09:31:24.492Z,10.52
2022-12-07T09:33:56.294Z,11.05
2022-12-07T09:36:23.475Z,10.80
2022-12-07T09:38:50.524Z,11.00
2022-12-07T09:41:17.576Z,11.57
2022-12-07T09:43:44.875Z,10.82
2022-12-07T09:46:17.701Z,10.35
2022-12-07T09:48:45.905Z,11.13
2022-12-07T09:51:21.125Z,10.43
2022-12-07T09:53:51.555Z,10.85
2022-12-07T09:56:19.854Z,10.60
2022-12-07T09:58:47.327Z,10.90
2022-12-07T10:01:16.815Z,10.73
2022-12-07T10:03:46.743Z,11.02
2022-12-07T10:06:14.391Z,10.10
2022-12-07T10:08:44.217Z,10.17
2022-12-07T10:11:12.546Z,10.60
2022-12-07T10:13:41.032Z,9.63
2022-12-07T10:16:28.445Z,9.80
2022-12-07T10:18:56.298Z,9.95
2022-12-07T10:21:24.993Z,10.23
2022-12-07T10:24:12.106Z,9.82
2022-12-07T10:26:41.733Z,10.15
2022-12-07T10:29:28.711Z,9.75
2022-12-07T10:32:02.028Z,11.17
2022-12-07T10:34:42.628Z,10.30
2022-12-07T10:37:10.481Z,9.82
2022-12-07T10:39:55.338Z,9.98
2022-12-07T10:42:22.368Z,10.17
2022-12-07T10:44:50.542Z,9.82
2022-12-07T10:47:23.399Z,8.85
2022-12-07T10:49:50.450Z,9.93
2022-12-07T10:52:37.458Z,9.32
2022-12-07T10:55:24.470Z,9.60
2022-12-07T10:57:57.796Z,9.90
2022-12-07T11:00:25.775Z,10.32
2022-12-07T11:03:12.781Z,9.95
2022-12-07T11:05:39.836Z,9.38
2022-12-07T11:08:26.905Z,10.55
2022-12-07T11:11:00.659Z,10.90
2022-12-07T11:13:31.965Z,10.38
2022-12-07T11:16:19.008Z,10.25
2022-12-07T11:18:46.125Z,10.02
2022-12-07T11:21:13.145Z,9.60
2022-12-07T11:23:55.752Z,9.50
2022-12-07T11:26:48.548Z,9.60
2022-12-07T11:29:15.608Z,9.32
2022-12-07T11:32:02.852Z,9.17
2022-12-07T11:34:37.692Z,8.93
2022-12-07T11:37:09.493Z,9.88
2022-12-07T11:39:40.853Z,9.80
2022-12-07T11:42:14.679Z,9.10
2022-12-07T11:44:41.702Z,9.15
2022-12-07T11:47:22.458Z,9.20
2022-12-07T11:50:09.432Z,8.88
2022-12-07T11:52:50.331Z,9.52
2022-12-07T11:55:23.340Z,9.47
2022-12-07T11:57:53.821Z,9.30
2022-12-07T12:00:21.207Z,9.10
2022-12-07T12:02:55.646Z,8.45
2022-12-07T12:05:23.830Z,10.38
2022-12-07T12:10:54.228Z,8.85
2022-12-07T12:16:36.093Z,9.55
2022-12-07T12:19:06.458Z,9.13
2022-12-07T12:21:33.659Z,8.65
2022-12-07T12:24:04.539Z,8.63
2022-12-07T12:26:33.067Z,9.33
2022-12-07T12:29:01.979Z,10.45
2022-12-07T12:31:29.079Z,9.48
2022-12-07T12:33:57.484Z,9.48
2022-12-07T12:36:26.521Z,9.07
2022-12-07T12:39:11.555Z,9.35
2022-12-07T12:41:39.266Z,10.13
2022-12-07T12:44:26.288Z,9.52
2022-12-07T12:46:53.392Z,9.98
2022-12-07T12:49:20.427Z,9.48
2022-12-07T12:51:48.523Z,9.77
2022-12-07T12:54:16.636Z,9.82
2022-12-07T12:56:44.726Z,10.40
2022-12-07T12:59:23.876Z,11.25
2022-12-07T13:01:53.475Z,10.95
2022-12-07T13:04:40.391Z,10.85
2022-12-07T13:07:12.400Z,10.77
2022-12-07T13:09:43.994Z,11.25
2022-12-07T13:12:15.543Z,11.02
2022-12-07T13:14:44.084Z,10.80
2022-12-07T13:17:12.873Z,10.68
2022-12-07T13:19:43.180Z,10.45
2022-12-07T13:22:30.159Z,10.55
2022-12-07T13:25:17.132Z,10.43
2022-12-07T13:27:48.806Z,11.15
2022-12-07T13:30:17.619Z,10.68
2022-12-07T13:32:45.303Z,10.82
2022-12-07T13:35:32.315Z,9.77
2022-12-07T13:37:59.595Z,9.88
2022-12-07T13:40:26.311Z,10.77
2022-12-07T13:43:03.203Z,9.85
2022-12-07T13:45:51.703Z,10.20
2022-12-07T13:48:22.139Z,9.95
2022-12-07T13:50:57.320Z,10.82
2022-12-07T13:53:24.806Z,11.07
2022-12-07T13:55:54.491Z,11.23
2022-12-07T13:58:21.958Z,10.75
2022-12-07T14:00:49.123Z,11.50
2022-12-07T14:03:16.220Z,12.93
2022-12-07T14:05:44.194Z,13.52
2022-12-07T14:08:11.356Z,12.05
2022-12-07T14:10:40.883Z,11.15
2022-12-07T14:13:27.847Z,10.32
2022-12-07T14:15:55.178Z,10.48
2022-12-07T14:18:31.243Z,10.88
2022-12-07T14:21:06.736Z,9.52
2022-12-07T14:23:33.990Z,9.43
2022-12-07T14:26:12.019Z,10.45
2022-12-07T14:28:39.281Z,11.02
2022-12-07T14:31:16.657Z,10.18
2022-12-07T14:33:47.752Z,10.30
2022-12-07T14:36:15.463Z,9.70
2022-12-07T14:38:42.749Z,9.90
2022-12-07T14:41:35.266Z,10.90
2022-12-07T14:44:22.600Z,9.20
2022-12-07T14:46:50.025Z,9.48
2022-12-07T14:54:46.711Z,9.90
2022-12-07T14:57:13.830Z,10.02
2022-12-07T14:59:45.018Z,10.68
2022-12-07T15:02:13.402Z,10.27
2022-12-07T15:04:40.598Z,9.45
2022-12-07T15:07:11.774Z,9.40
2022-12-07T15:09:38.838Z,9.38
2022-12-07T15:12:06.066Z,9.77
2022-12-07T15:14:33.152Z,9.70
2022-12-07T15:17:09.738Z,9.32
2022-12-07T15:19:38.827Z,10.10
2022-12-07T15:22:05.849Z,11.35
2022-12-07T15:24:32.867Z,10.53
2022-12-07T15:27:00.077Z,9.50
2022-12-07T15:29:27.133Z,8.57
2022-12-07T15:31:56.269Z,9.45
2022-12-07T15:34:25.122Z,9.52
2022-12-07T15:36:51.831Z,11.50
2022-12-07T15:39:18.458Z,9.73
2022-12-07T15:41:45.837Z,11.20
2022-12-07T15:44:33.618Z,10.73
2022-12-07T15:47:00.927Z,10.38
2022-12-07T15:49:28.538Z,9.77
2022-12-07T15:51:55.643Z,10.30
2022-12-07T15:54:25.077Z,9.77
2022-12-07T15:56:52.562Z,9.57
2022-12-07T15:59:19.586Z,9.88
2022-12-07T16:01:46.854Z,9.82
2022-12-07T16:04:13.794Z,9.38
2022-12-07T16:06:40.973Z,9.55
2022-12-07T16:09:08.260Z,10.27
2022-12-07T16:11:35.573Z,10.32
2022-12-07T16:14:02.274Z,9.68
2022-12-07T16:16:29.573Z,10.38
2022-12-07T16:18:57.561Z,10.02
2022-12-07T16:21:25.723Z,10.43
2022-12-07T16:23:53.020Z,13.33
2022-12-07T16:26:21.253Z,13.80
2022-12-07T16:28:50.898Z,17.23
2022-12-07T16:31:19.255Z,20.60
2022-12-07T16:33:46.698Z,20.33
2022-12-07T16:36:15.306Z,14.70
2022-12-07T16:38:45.210Z,13.15
2022-12-07T16:41:16.035Z,13.10
2022-12-07T16:43:43.095Z,11.90
2022-12-07T16:46:10.429Z,23.30
2022-12-07T16:48:39.039Z,26.10
2022-12-07T16:51:07.368Z,20.33
2022-12-07T16:53:34.414Z,15.40
2022-12-07T16:56:01.563Z,14.55
2022-12-07T16:58:28.988Z,14.07
2022-12-07T17:00:56.478Z,12.73
2022-12-07T17:03:23.706Z,11.80
2022-12-07T17:05:50.866Z,10.90
2022-12-07T17:08:18.037Z,12.30
2022-12-07T17:10:46.320Z,12.13
2022-12-07T17:13:33.577Z,12.80
2022-12-07T17:16:02.188Z,10.95
2022-12-07T17:18:30.079Z,14.63
2022-12-07T17:21:01.102Z,14.88
2022-12-07T17:23:32.514Z,15.75
2022-12-07T17:26:05.530Z,20.17
2022-12-07T17:28:32.686Z,22.85
2022-12-07T17:30:59.863Z,21.73
2022-12-07T17:33:26.862Z,23.00
2022-12-07T17:35:53.958Z,23.95
2022-12-07T17:38:21.022Z,34.08
2022-12-07T17:40:48.093Z,28.85
2022-12-07T17:43:15.154Z,29.35
2022-12-07T17:45:42.272Z,22.20
2022-12-07T17:48:09.381Z,16.98
2022-12-07T17:50:56.375Z,14.55
2022-12-07T17:53:23.381Z,14.50
2022-12-07T17:56:27.011Z,15.55
2022-12-07T17:58:40.694Z,25.02
2022-12-07T18:01:11.079Z,24.42
2022-12-07T18:03:38.298Z,22.43
2022-12-07T18:06:05.410Z,24.45
2022-12-07T18:08:35.602Z,27.05
2022-12-07T18:11:03.200Z,22.48
2022-12-07T18:13:38.255Z,19.70
2022-12-07T18:16:06.157Z,16.92
2022-12-07T18:18:33.474Z,13.65
2022-12-07T18:21:03.353Z,15.15
2022-12-07T18:23:30.449Z,13.90
2022-12-07T18:25:57.486Z,15.18
2022-12-07T18:28:24.538Z,13.45
2022-12-07T18:31:16.407Z,16.48
2022-12-07T18:33:38.719Z,18.10
2022-12-07T18:36:06.369Z,18.15
2022-12-07T18:38:33.633Z,17.33
2022-12-07T18:41:01.838Z,18.60
2022-12-07T18:43:29.042Z,19.98
2022-12-07T18:45:56.602Z,19.05
2022-12-07T18:48:23.824Z,19.48
2022-12-07T18:51:06.801Z,17.65
2022-12-07T18:53:34.550Z,19.88
2022-12-07T18:56:02.732Z,16.60
2022-12-07T18:58:29.829Z,17.13
2022-12-07T19:00:57.299Z,16.77
2022-12-07T19:03:28.635Z,15.20
2022-12-07T19:05:58.785Z,15.07
2022-12-07T19:08:26.266Z,17.45
2022-12-07T19:10:53.462Z,17.13
2022-12-07T19:13:20.806Z,17.52
2022-12-07T19:15:47.900Z,18.88
2022-12-07T19:18:14.952Z,18.25
2022-12-07T19:20:42.028Z,17.25
2022-12-07T19:23:09.084Z,17.23
2022-12-07T19:25:35.747Z,18.40
2022-12-07T19:28:02.844Z,18.25
2022-12-07T19:30:29.888Z,18.83
2022-12-07T19:32:56.596Z,19.23
2022-12-07T19:35:23.641Z,21.33
2022-12-07T19:37:50.700Z,18.98
2022-12-07T19:40:17.977Z,19.92
2022-12-07T19:42:45.012Z,19.05
2022-12-07T19:45:12.213Z,16.83
2022-12-07T19:47:39.279Z,18.02
2022-12-07T19:50:06.629Z,17.75
2022-12-07T19:52:36.769Z,17.58
2022-12-07T19:55:04.470Z,17.73
2022-12-07T19:57:31.803Z,19.63
2022-12-07T19:59:59.247Z,18.63
2022-12-07T20:02:26.356Z,19.97
2022-12-07T20:04:53.428Z,29.33
2022-12-07T20:07:20.441Z,19.27
2022-12-07T20:09:47.547Z,18.25
2022-12-07T20:12:34.497Z,17.15
2022-12-07T20:15:02.000Z,16.58
2022-12-07T20:17:29.349Z,17.83
2022-12-07T20:19:56.463Z,15.15
2022-12-07T20:22:23.468Z,14.38
2022-12-07T20:24:50.560Z,14.90
2022-12-07T20:27:17.795Z,14.27
2022-12-07T20:29:45.272Z,15.90
2022-12-07T20:32:13.469Z,16.08
2022-12-07T20:34:40.608Z,15.70
2022-12-07T20:37:07.668Z,14.32
2022-12-07T20:39:34.703Z,15.68
2022-12-07T20:42:21.704Z,14.68
2022-12-07T20:44:48.779Z,14.68
2022-12-07T20:47:15.820Z,15.30
2022-12-07T20:49:42.899Z,15.88
2022-12-07T20:52:10.000Z,15.98
2022-12-07T20:54:37.272Z,15.70
2022-12-07T20:57:04.403Z,14.20
2022-12-07T20:59:34.146Z,15.48
2022-12-07T21:02:05.241Z,15.65
2022-12-07T21:04:32.409Z,17.25
2022-12-07T21:06:59.467Z,16.30
2022-12-07T21:09:27.098Z,16.00
2022-12-07T21:11:54.530Z,15.57
2022-12-07T21:14:21.772Z,15.40
2022-12-07T21:16:48.878Z,14.80
2022-12-07T21:19:16.600Z,13.80
2022-12-07T21:21:43.549Z,13.40
2022-12-07T21:24:11.767Z,13.60
2022-12-07T21:26:39.007Z,13.73
2022-12-07T21:29:07.473Z,13.30
2022-12-07T21:31:34.871Z,13.85
2022-12-07T21:34:03.323Z,12.93
2022-12-07T21:36:30.517Z,13.13
2022-12-07T21:38:57.815Z,14.75
2022-12-07T21:41:26.538Z,14.05
2022-12-07T21:43:54.051Z,16.60
2022-12-07T21:46:22.232Z,13.93
2022-12-07T21:48:51.489Z,14.10
2022-12-07T21:51:20.859Z,13.95
2022-12-07T21:53:49.220Z,13.77
2022-12-07T21:56:16.536Z,13.75
2022-12-07T21:58:43.780Z,14.02
2022-12-07T22:01:17.922Z,13.90
2022-12-07T22:03:45.564Z,13.80
2022-12-07T22:06:14.548Z,12.07
2022-12-07T22:08:42.386Z,12.27
2022-12-07T22:11:09.794Z,13.48
2022-12-07T22:13:58.430Z,12.70
2022-12-07T22:16:25.850Z,12.95
2022-12-07T22:18:53.299Z,12.43
2022-12-07T22:21:20.605Z,12.18
2022-12-07T22:23:47.704Z,12.15
2022-12-07T22:26:19.806Z,12.23
2022-12-07T22:28:49.874Z,12.27
2022-12-07T22:31:18.064Z,11.67
2022-12-07T22:33:45.228Z,11.60
2022-12-07T22:36:12.620Z,13.27
2022-12-07T22:38:40.208Z,12.43
2022-12-07T22:41:09.461Z,11.90
2022-12-07T22:43:36.813Z,11.30
2022-12-07T22:46:03.817Z,12.18
2022-12-07T22:48:30.951Z,11.80
2022-12-07T22:50:58.032Z,13.47
2022-12-07T22:53:25.428Z,12.40
2022-12-07T22:55:52.208Z,12.07
2022-12-07T22:58:19.834Z,12.57
2022-12-07T23:00:47.013Z,11.82
2022-12-07T23:03:14.355Z,12.40
2022-12-07T23:05:42.737Z,12.25
2022-12-07T23:08:09.890Z,11.47
2022-12-07T23:10:37.082Z,11.88
2022-12-07T23:13:24.058Z,12.57
2022-12-07T23:15:51.131Z,12.40
2022-12-07T23:18:18.306Z,12.90
2022-12-07T23:20:45.341Z,12.43
2022-12-07T23:23:12.382Z,14.38
2022-12-07T23:25:39.440Z,13.88
2022-12-07T23:28:06.473Z,13.52
2022-12-07T23:30:33.519Z,12.20
2022-12-07T23:33:00.558Z,13.23
2022-12-07T23:35:27.615Z,14.40
2022-12-07T23:37:54.678Z,13.88
2022-12-07T23:40:21.788Z,14.35
2022-12-07T23:42:48.861Z,14.13
2022-12-07T23:45:15.923Z,13.13
2022-12-07T23:47:43.026Z,12.98
2022-12-07T23:50:10.242Z,12.75
2022-12-07T23:52:37.302Z,12.75
2022-12-07T23:55:04.796Z,13.18
2022-12-07T23:57:33.373Z,12.23
